Time;durP1;ratioP1;P1;durP2;ratioP2;P2;SDS_P1;SDS_P2;PMS_P1;PMS_P2;Temp;Humidity;BMP_temperature;BMP_pressure;BME280_temperature;BME280_humidity;BME280_pressure;Samples;Min_cycle;Max_cycle;Signal;HPM_P1;HPM_P2
2021/12/22 00:02:30;;;;;;;1.43;1.33;;;-4.30;99.90;;;;;;5079109;28;20036;-86
2021/12/22 00:04:56;;;;;;;2.70;1.80;;;-4.40;99.90;;;;;;5078831;28;20038;-86
2021/12/22 00:07:22;;;;;;;4.43;4.03;;;-4.40;99.90;;;;;;5078252;28;20058;-85
2021/12/22 00:09:48;;;;;;;2.03;1.83;;;-4.50;99.90;;;;;;5079145;28;20114;-85
2021/12/22 00:12:13;;;;;;;0.70;0.70;;;-4.50;99.90;;;;;;5078635;28;20040;-85
2021/12/22 00:14:39;;;;;;;1.20;1.10;;;-4.50;99.90;;;;;;5078677;28;20035;-85
2021/12/22 00:17:05;;;;;;;3.63;1.70;;;-4.50;99.90;;;;;;5078659;28;20031;-85
2021/12/22 00:19:30;;;;;;;0.60;0.60;;;-4.50;99.90;;;;;;5078520;28;20035;-85
2021/12/22 00:21:56;;;;;;;0.83;0.80;;;-4.50;99.90;;;;;;5078610;28;20036;-85
2021/12/22 00:24:22;;;;;;;1.17;1.10;;;-4.60;99.90;;;;;;5078633;28;20035;-85
2021/12/22 00:26:47;;;;;;;2.20;1.57;;;-4.60;99.90;;;;;;5078552;28;20043;-85
2021/12/22 00:29:14;;;;;;;21.40;2.00;;;-4.70;99.90;;;;;;5074246;28;20063;-85
2021/12/22 00:31:56;;;;;;;0.87;0.83;;;-4.70;99.90;;;;;;5063774;28;20069;-86
2021/12/22 00:34:21;;;;;;;0.60;0.60;;;-4.80;99.90;;;;;;5075282;28;20059;-84
2021/12/22 00:36:47;;;;;;;1.33;1.23;;;-4.60;99.90;;;;;;5061797;28;20044;-85
2021/12/22 00:39:13;;;;;;;0.50;0.50;;;-4.80;99.90;;;;;;5084445;28;20028;-85
2021/12/22 00:41:38;;;;;;;0.70;0.70;;;-4.70;99.90;;;;;;5101856;28;20073;-86
2021/12/22 00:44:05;;;;;;;1.13;1.03;;;-4.60;99.90;;;;;;5071726;28;20067;-85
2021/12/22 00:46:32;;;;;;;1.07;0.97;;;-4.50;99.90;;;;;;5080909;28;20119;-84
2021/12/22 00:48:57;;;;;;;0.83;0.73;;;-4.50;99.90;;;;;;5061861;28;20036;-85
2021/12/22 00:51:23;;;;;;;0.87;0.87;;;-4.60;99.90;;;;;;5101939;28;20097;-85
2021/12/22 00:53:48;;;;;;;0.70;0.70;;;-4.50;99.90;;;;;;5061562;28;20039;-85
2021/12/22 00:56:14;;;;;;;1.53;1.43;;;-4.50;99.90;;;;;;5100360;27;20054;-85
2021/12/22 00:58:40;;;;;;;1.63;1.53;;;-4.40;99.90;;;;;;5081847;28;20510;-85
2021/12/22 01:01:06;;;;;;;1.80;1.53;;;-4.40;99.90;;;;;;5067052;28;20127;-85
2021/12/22 01:03:35;;;;;;;5.10;2.97;;;-4.40;99.90;;;;;;5072834;28;20039;-85
2021/12/22 01:06:01;;;;;;;2.00;1.43;;;-4.50;99.90;;;;;;5067432;27;20038;-86
2021/12/22 01:08:26;;;;;;;3.20;2.60;;;-4.60;99.90;;;;;;5102019;27;20050;-85
2021/12/22 01:10:52;;;;;;;1.47;1.37;;;-4.60;99.90;;;;;;5083284;28;20044;-85
2021/12/22 01:13:18;;;;;;;1.47;1.37;;;-4.60;99.90;;;;;;5098661;28;20081;-85
2021/12/22 01:15:44;;;;;;;0.90;0.90;;;-4.60;99.90;;;;;;5081584;28;20043;-85
2021/12/22 01:18:16;;;;;;;0.60;0.60;;;-4.60;99.90;;;;;;5081341;28;20036;-85
2021/12/22 01:20:59;;;;;;;1.20;1.10;;;-4.70;99.90;;;;;;5098506;28;20035;-86
2021/12/22 01:23:25;;;;;;;1.20;1.07;;;-4.60;99.90;;;;;;5081678;28;20039;-85
2021/12/22 01:25:51;;;;;;;2.13;1.93;;;-4.60;99.90;;;;;;5098563;28;20044;-85
2021/12/22 01:28:18;;;;;;;3.50;2.10;;;-3.70;99.90;;;;;;5080848;28;20044;-85
2021/12/22 01:30:47;;;;;;;1.13;1.03;;;-4.60;99.90;;;;;;5081520;28;20043;-85
2021/12/22 01:33:14;;;;;;;1.33;1.23;;;-4.60;99.90;;;;;;5081302;28;20492;-85
2021/12/22 01:35:40;;;;;;;1.10;1.00;;;-4.60;99.90;;;;;;5098273;28;20035;-85
2021/12/22 01:38:07;;;;;;;0.70;0.70;;;-4.60;99.90;;;;;;5080586;28;20047;-85
2021/12/22 01:40:36;;;;;;;1.43;1.33;;;-4.60;99.90;;;;;;5081174;28;20031;-85
2021/12/22 01:43:05;;;;;;;0.60;0.60;;;-4.60;99.90;;;;;;5081395;28;20545;-86
2021/12/22 01:45:53;;;;;;;0.70;0.70;;;-4.60;99.90;;;;;;5081151;28;20040;-85
2021/12/22 01:51:34;;;;;;;2.30;1.33;;;-4.60;99.90;;;;;;5097833;28;20130;-85
2021/12/22 01:54:05;;;;;;;2.80;2.30;;;-4.60;99.90;;;;;;5080954;28;20040;-84
2021/12/22 01:56:34;;;;;;;0.60;0.60;;;-4.50;99.90;;;;;;5097803;28;20052;-85
2021/12/22 01:59:03;;;;;;;0.97;0.97;;;-4.60;99.90;;;;;;5080915;28;20035;-84
2021/12/22 02:01:32;;;;;;;1.50;1.40;;;-4.40;99.90;;;;;;5097708;28;20040;-84
2021/12/22 02:03:58;;;;;;;0.83;0.83;;;-4.60;99.90;;;;;;5097581;28;20046;-84
2021/12/22 02:06:23;;;;;;;2.83;2.50;;;-4.70;99.90;;;;;;5080537;28;20043;-85
2021/12/22 02:08:49;;;;;;;3.93;3.60;;;-4.70;99.90;;;;;;5080311;28;20039;-84
2021/12/22 02:11:17;;;;;;;2.93;1.50;;;-4.70;99.90;;;;;;5080512;28;20047;-85
2021/12/22 02:13:48;;;;;;;2.50;2.30;;;-4.70;99.90;;;;;;5063996;28;20043;-85
2021/12/22 02:16:17;;;;;;;0.60;0.60;;;-4.50;99.90;;;;;;5080159;28;20068;-84
2021/12/22 02:18:48;;;;;;;1.13;1.03;;;-4.60;99.90;;;;;;5097324;28;20043;-85
2021/12/22 02:21:14;;;;;;;2.00;1.90;;;-4.60;99.90;;;;;;5080592;28;20496;-85
2021/12/22 02:23:41;;;;;;;0.83;0.83;;;-4.50;99.90;;;;;;5080781;28;20039;-85
2021/12/22 02:26:17;;;;;;;1.23;1.13;;;-4.50;99.90;;;;;;5080007;28;20042;-85
2021/12/22 02:28:47;;;;;;;1.80;1.70;;;-4.50;99.90;;;;;;5080464;28;20043;-85
2021/12/22 02:31:17;;;;;;;0.70;0.70;;;-4.50;99.90;;;;;;5080403;28;20039;-85
2021/12/22 02:33:46;;;;;;;0.70;0.70;;;-4.50;99.90;;;;;;5080166;28;20071;-85
2021/12/22 02:36:28;;;;;;;2.20;2.00;;;-4.50;99.90;;;;;;5079697;28;20046;-85
2021/12/22 02:39:00;;;;;;;1.80;1.60;;;-4.50;99.90;;;;;;5079935;28;20046;-85
2021/12/22 02:41:30;;;;;;;0.87;0.87;;;-4.50;99.90;;;;;;5080120;28;20031;-85
2021/12/22 02:44:00;;;;;;;1.57;1.47;;;-4.50;99.90;;;;;;5080016;28;20035;-84
2021/12/22 02:46:30;;;;;;;5.17;2.60;;;-4.50;99.90;;;;;;5079559;28;20036;-85
2021/12/22 02:48:57;;;;;;;0.60;0.60;;;-4.50;99.90;;;;;;5096833;28;20083;-85
2021/12/22 02:51:27;;;;;;;0.83;0.83;;;-4.50;99.90;;;;;;5079774;28;20089;-85
2021/12/22 02:54:15;;;;;;;0.80;0.80;;;-4.50;99.90;;;;;;5079893;28;20439;-85
2021/12/22 03:04:11;;;;;;;1.47;1.37;;;-4.60;99.90;;;;;;5096560;28;20043;-85
2021/12/22 03:06:51;;;;;;;1.47;1.17;;;-4.60;99.90;;;;;;5079174;28;20082;-84
2021/12/22 03:09:22;;;;;;;0.40;0.40;;;-4.60;99.90;;;;;;5096691;28;20496;-85
2021/12/22 03:11:49;;;;;;;1.33;1.23;;;-4.50;99.90;;;;;;5079420;28;20053;-85
2021/12/22 03:14:15;;;;;;;1.87;1.77;;;-4.60;99.90;;;;;;5079400;28;20044;-85
2021/12/22 03:16:45;;;;;;;0.57;0.57;;;-4.60;99.90;;;;;;5096182;28;20035;-85
2021/12/22 03:19:13;;;;;;;1.20;1.03;;;-4.60;99.90;;;;;;5078411;28;20139;-85
2021/12/22 03:21:41;;;;;;;2.03;1.93;;;-4.50;99.90;;;;;;5079313;28;20123;-85
2021/12/22 03:24:07;;;;;;;0.87;0.73;;;-4.60;99.90;;;;;;5079156;28;20035;-84
2021/12/22 03:26:33;;;;;;;1.57;1.47;;;-4.60;99.90;;;;;;5078825;28;20047;-84
2021/12/22 03:28:58;;;;;;;1.30;1.20;;;-4.60;99.90;;;;;;5079107;28;20040;-84
2021/12/22 03:31:24;;;;;;;0.70;0.70;;;-4.60;99.90;;;;;;5078992;28;20493;-84
2021/12/22 03:33:50;;;;;;;2.30;2.10;;;-4.60;99.90;;;;;;5079368;28;20086;-84
2021/12/22 03:36:16;;;;;;;1.37;1.23;;;-4.60;99.90;;;;;;5095641;28;20036;-85
2021/12/22 03:38:43;;;;;;;2.13;2.00;;;-4.60;99.90;;;;;;5078749;28;20039;-84
2021/12/22 03:41:10;;;;;;;7.13;6.47;;;-4.60;99.90;;;;;;5079075;28;20031;-84
2021/12/22 03:43:36;;;;;;;1.07;1.00;;;-4.60;99.90;;;;;;5079086;28;20042;-86
2021/12/22 03:46:03;;;;;;;0.50;0.50;;;-4.60;99.90;;;;;;5078863;28;20122;-86
2021/12/22 03:48:28;;;;;;;0.70;0.70;;;-4.60;99.90;;;;;;5078886;28;20096;-84
2021/12/22 03:50:55;;;;;;;0.90;0.90;;;-4.70;99.90;;;;;;5078882;28;20447;-84
2021/12/22 03:53:20;;;;;;;1.27;1.17;;;-4.60;99.90;;;;;;5078825;28;20126;-85
2021/12/22 03:55:46;;;;;;;1.00;1.00;;;-4.60;99.90;;;;;;5078759;28;20127;-84
2021/12/22 03:58:12;;;;;;;2.67;1.77;;;-4.70;99.90;;;;;;5095151;28;20450;-85
2021/12/22 04:00:40;;;;;;;2.20;1.67;;;-4.70;99.90;;;;;;5095793;28;20044;-85
2021/12/22 04:03:10;;;;;;;2.77;2.50;;;-3.50;99.90;;;;;;5078429;28;20040;-84
2021/12/22 04:05:36;;;;;;;3.90;1.93;;;-4.70;99.90;;;;;;5095633;28;20085;-85
2021/12/22 04:08:02;;;;;;;1.37;1.23;;;-4.70;99.90;;;;;;5078176;28;20472;-86
2021/12/22 04:10:27;;;;;;;2.33;1.47;;;-4.20;99.90;;;;;;5078440;28;20126;-85
2021/12/22 04:12:55;;;;;;;4.83;4.10;;;-4.70;99.90;;;;;;5095532;28;20053;-85
2021/12/22 04:15:25;;;;;;;1.90;1.50;;;-4.70;99.90;;;;;;5078817;28;20103;-86
2021/12/22 04:17:53;;;;;;;1.53;1.43;;;-4.80;99.90;;;;;;5078071;28;20127;-85
2021/12/22 04:20:19;;;;;;;4.20;2.00;;;-4.80;99.90;;;;;;5078513;28;20040;-85
2021/12/22 04:22:44;;;;;;;1.87;1.77;;;-4.90;99.90;;;;;;5078781;28;20065;-84
2021/12/22 04:25:11;;;;;;;2.73;2.50;;;-4.90;99.90;;;;;;5095522;28;20040;-86
2021/12/22 04:27:37;;;;;;;2.53;2.20;;;-4.80;99.90;;;;;;5094934;28;20078;-85
2021/12/22 04:30:06;;;;;;;3.10;2.20;;;-5.00;99.90;;;;;;5078935;28;20028;-85
2021/12/22 04:32:32;;;;;;;1.27;1.17;;;-5.00;99.90;;;;;;5099577;28;20039;-85
2021/12/22 04:34:57;;;;;;;1.07;0.97;;;-5.00;99.90;;;;;;5082283;28;20514;-84
2021/12/22 04:37:23;;;;;;;0.67;0.67;;;-5.00;99.90;;;;;;5099024;28;20031;-85
2021/12/22 04:39:49;;;;;;;0.83;0.80;;;-5.00;99.90;;;;;;5082402;28;20396;-85
2021/12/22 04:42:16;;;;;;;2.77;1.63;;;-5.00;99.90;;;;;;5099160;28;20097;-84
2021/12/22 04:44:42;;;;;;;1.17;1.07;;;-5.00;99.90;;;;;;5082429;28;20043;-85
2021/12/22 04:47:07;;;;;;;3.50;1.33;;;-5.00;99.90;;;;;;5081920;28;20036;-85
2021/12/22 04:49:33;;;;;;;0.90;0.90;;;-5.10;99.90;;;;;;5099253;28;20362;-84
2021/12/22 04:52:00;;;;;;;2.47;1.90;;;-5.10;99.90;;;;;;5099028;28;20067;-85
2021/12/22 04:56:52;;;;;;;1.47;1.37;;;-5.10;99.90;;;;;;5098473;28;20042;-84
2021/12/22 04:59:18;;;;;;;1.23;1.13;;;-5.10;99.90;;;;;;5081894;28;20086;-84
2021/12/22 05:01:44;;;;;;;1.37;1.27;;;-5.10;99.90;;;;;;5078536;28;20059;-86
2021/12/22 05:04:09;;;;;;;1.10;1.00;;;-5.10;99.90;;;;;;5093438;28;20492;-85
2021/12/22 05:06:35;;;;;;;1.37;1.27;;;-5.20;99.90;;;;;;5061135;28;20067;-85
2021/12/22 05:09:02;;;;;;;3.03;2.20;;;-5.10;99.90;;;;;;5061459;28;20048;-85
2021/12/22 05:11:28;;;;;;;1.63;1.50;;;-5.10;99.90;;;;;;5061284;28;20386;-84
2021/12/22 05:13:53;;;;;;;2.93;2.40;;;-5.20;99.90;;;;;;5060954;28;20089;-84
2021/12/22 05:16:19;;;;;;;3.53;1.90;;;-5.10;99.90;;;;;;5060605;28;20505;-86
2021/12/22 05:18:51;;;;;;;0.87;0.83;;;-5.20;99.90;;;;;;5060819;28;20047;-83
2021/12/22 05:21:21;;;;;;;0.90;0.80;;;-5.20;99.90;;;;;;5061483;28;20036;-85
2021/12/22 05:23:48;;;;;;;1.03;1.00;;;-5.20;99.90;;;;;;5063840;28;20090;-85
2021/12/22 05:26:14;;;;;;;0.60;0.60;;;-5.20;99.90;;;;;;5064978;28;20036;-85
2021/12/22 05:28:40;;;;;;;0.60;0.60;;;-5.70;99.90;;;;;;5077677;28;20119;-86
2021/12/22 05:31:12;;;;;;;4.73;4.30;;;-5.10;99.90;;;;;;5060786;28;20127;-84
2021/12/22 05:33:37;;;;;;;0.73;0.73;;;-5.20;99.90;;;;;;5061112;28;20044;-85
2021/12/22 05:36:05;;;;;;;1.23;1.00;;;-5.10;99.90;;;;;;5077120;28;20044;-86
2021/12/22 05:38:31;;;;;;;1.27;1.17;;;-5.20;99.90;;;;;;5077435;28;20489;-85
2021/12/22 05:40:57;;;;;;;1.90;1.47;;;-5.20;99.90;;;;;;5060703;28;20084;-85
2021/12/22 05:43:22;;;;;;;2.33;2.13;;;-5.10;99.90;;;;;;5059871;28;20040;-85
2021/12/22 05:45:48;;;;;;;0.83;0.83;;;-5.20;99.90;;;;;;5077315;28;20480;-84
2021/12/22 05:48:14;;;;;;;0.53;0.53;;;-5.20;99.90;;;;;;5060041;28;20036;-84
2021/12/22 05:50:43;;;;;;;1.90;1.77;;;-5.20;99.90;;;;;;5076776;28;20071;-85
2021/12/22 05:53:09;;;;;;;3.57;2.10;;;-5.20;99.90;;;;;;5077290;28;20126;-84
2021/12/22 05:55:35;;;;;;;0.80;0.80;;;-5.10;99.90;;;;;;5077035;28;20209;-85
2021/12/22 05:58:01;;;;;;;2.93;2.20;;;-5.20;99.90;;;;;;5059663;28;20047;-85
2021/12/22 06:00:27;;;;;;;1.10;1.00;;;-5.20;99.90;;;;;;5060270;28;20050;-84
2021/12/22 06:02:53;;;;;;;0.60;0.60;;;-5.20;99.90;;;;;;5060268;28;20054;-85
2021/12/22 06:05:19;;;;;;;0.70;0.70;;;-5.20;99.90;;;;;;5060185;28;20043;-84
2021/12/22 06:07:45;;;;;;;2.93;2.67;;;-5.20;99.90;;;;;;5059704;28;20040;-84
2021/12/22 06:10:11;;;;;;;2.40;1.70;;;-5.20;99.90;;;;;;5060097;28;20043;-84
2021/12/22 06:12:37;;;;;;;4.03;1.80;;;-5.20;99.90;;;;;;5076505;28;20081;-85
2021/12/22 06:15:03;;;;;;;0.60;0.60;;;-5.20;99.90;;;;;;5080990;28;20507;-84
2021/12/22 06:17:29;;;;;;;0.53;0.53;;;-5.20;99.90;;;;;;5074483;28;20382;-84
2021/12/22 06:19:54;;;;;;;0.50;0.50;;;-5.10;99.90;;;;;;5079818;28;20070;-86
2021/12/22 06:22:21;;;;;;;1.77;1.63;;;-5.10;99.90;;;;;;5096768;28;20058;-85
2021/12/22 06:24:47;;;;;;;22.57;2.87;;;-5.20;99.90;;;;;;5080158;28;20027;-85
2021/12/22 06:27:13;;;;;;;2.33;1.73;;;-5.20;99.90;;;;;;5079483;28;20044;-84
2021/12/22 06:29:38;;;;;;;3.70;1.90;;;-5.20;99.90;;;;;;5079836;28;20535;-84
2021/12/22 06:32:05;;;;;;;1.13;0.97;;;-5.20;99.90;;;;;;5080033;28;20047;-85
2021/12/22 06:34:30;;;;;;;2.50;2.30;;;-5.10;99.90;;;;;;5079417;28;20513;-85
2021/12/22 06:36:56;;;;;;;1.20;1.10;;;-5.20;99.90;;;;;;5078885;28;20081;-86
2021/12/22 06:39:22;;;;;;;1.03;0.93;;;-5.20;99.90;;;;;;5091710;28;20040;-85
2021/12/22 06:41:48;;;;;;;0.70;0.70;;;-5.20;99.90;;;;;;5079336;28;20522;-85
2021/12/22 06:44:14;;;;;;;1.60;1.43;;;-5.20;99.90;;;;;;5079020;28;20131;-85
2021/12/22 06:46:41;;;;;;;0.73;0.63;;;-5.10;99.90;;;;;;5095754;28;20035;-85
2021/12/22 06:49:07;;;;;;;2.77;2.50;;;-5.10;99.90;;;;;;5078962;28;20043;-85
2021/12/22 06:51:33;;;;;;;0.80;0.80;;;-5.20;99.90;;;;;;5078978;28;20035;-86
2021/12/22 06:53:59;;;;;;;0.80;0.80;;;-5.20;99.90;;;;;;5078879;28;20062;-85
2021/12/22 06:56:24;;;;;;;5.70;3.37;;;-5.20;99.90;;;;;;5095491;28;20043;-85
2021/12/22 06:58:50;;;;;;;1.03;0.87;;;-5.20;99.90;;;;;;5078978;28;20484;-85
2021/12/22 07:01:19;;;;;;;0.50;0.50;;;-5.20;99.90;;;;;;5095851;28;20032;-85
2021/12/22 07:03:45;;;;;;;1.13;1.10;;;-5.20;99.90;;;;;;5074917;28;20078;-85
2021/12/22 07:06:10;;;;;;;2.00;1.67;;;-5.20;99.90;;;;;;5095392;28;20430;-85
2021/12/22 07:08:36;;;;;;;2.57;2.37;;;-5.20;99.90;;;;;;5078897;28;20122;-85
2021/12/22 07:11:02;;;;;;;0.77;0.77;;;-5.30;99.90;;;;;;5078632;28;20043;-85
2021/12/22 07:13:27;;;;;;;1.33;1.23;;;-5.20;99.90;;;;;;5079025;28;20039;-85
2021/12/22 07:15:53;;;;;;;0.77;0.77;;;-5.20;99.90;;;;;;5072044;28;20040;-85
2021/12/22 07:18:18;;;;;;;1.33;1.13;;;-5.30;99.90;;;;;;5058363;28;20063;-85
2021/12/22 07:20:44;;;;;;;2.03;0.87;;;-5.30;99.90;;;;;;5072420;28;20058;-85
2021/12/22 07:23:10;;;;;;;1.17;1.07;;;-5.40;99.90;;;;;;5078754;28;20043;-86
2021/12/22 07:25:36;;;;;;;2.60;1.43;;;-5.30;99.90;;;;;;5074209;28;20032;-85
2021/12/22 07:28:02;;;;;;;0.60;0.60;;;-5.30;99.90;;;;;;5090574;28;20067;-85
2021/12/22 07:30:28;;;;;;;0.93;0.90;;;-5.30;99.90;;;;;;5095409;28;20031;-85
2021/12/22 07:32:54;;;;;;;1.53;1.03;;;-5.40;99.90;;;;;;5078275;28;20084;-85
2021/12/22 07:35:38;;;;;;;1.30;1.20;;;-5.30;99.90;;;;;;5078491;28;20078;-85
2021/12/22 07:38:27;;;;;;;1.67;1.57;;;-5.30;99.90;;;;;;5094667;28;20048;-86
2021/12/22 07:40:56;;;;;;;2.33;1.27;;;-5.30;99.90;;;;;;5095044;28;20039;-86
2021/12/22 07:43:22;;;;;;;0.60;0.60;;;-5.30;99.90;;;;;;5078221;28;20119;-85
2021/12/22 07:45:48;;;;;;;1.00;0.90;;;-5.30;99.90;;;;;;5095253;28;20480;-86
2021/12/22 07:48:14;;;;;;;1.17;1.07;;;-5.30;99.90;;;;;;5077800;28;20039;-85
2021/12/22 07:50:40;;;;;;;0.70;0.70;;;-5.30;99.90;;;;;;5069617;28;20036;-85
2021/12/22 07:53:06;;;;;;;1.20;1.10;;;-5.30;99.90;;;;;;5061354;28;20443;-85
2021/12/22 07:55:32;;;;;;;0.63;0.63;;;-5.20;99.90;;;;;;5058185;28;20094;-86
2021/12/22 07:57:57;;;;;;;6.00;5.60;;;-5.20;99.90;;;;;;5057545;28;20146;-85
2021/12/22 08:00:23;;;;;;;2.20;1.57;;;-5.20;99.90;;;;;;5058339;28;20072;-85
2021/12/22 08:02:48;;;;;;;0.80;0.80;;;-5.20;99.90;;;;;;5074196;28;20042;-85
2021/12/22 08:05:14;;;;;;;1.17;1.10;;;-5.20;99.90;;;;;;5094535;28;20035;-85
2021/12/22 08:07:39;;;;;;;0.97;0.97;;;-5.20;99.90;;;;;;5064286;28;20089;-85
2021/12/22 08:10:07;;;;;;;4.30;2.53;;;-5.10;99.90;;;;;;5074614;28;20081;-85
2021/12/22 08:12:32;;;;;;;0.90;0.90;;;-5.10;99.90;;;;;;5070771;28;20031;-85
2021/12/22 08:14:58;;;;;;;0.83;0.83;;;-5.10;99.90;;;;;;5073281;28;20127;-85
2021/12/22 08:17:27;;;;;;;1.73;1.63;;;-5.00;99.90;;;;;;5071312;28;20043;-85
2021/12/22 08:19:53;;;;;;;2.70;2.50;;;-5.00;99.90;;;;;;5084440;28;20036;-85
2021/12/22 08:22:19;;;;;;;2.07;1.77;;;-4.90;99.90;;;;;;5058077;28;20124;-85
2021/12/22 08:24:44;;;;;;;3.87;3.20;;;-4.90;99.90;;;;;;5057680;28;20102;-86
2021/12/22 08:27:10;;;;;;;0.90;0.80;;;-4.80;99.90;;;;;;5057110;28;20036;-85
2021/12/22 08:29:41;;;;;;;3.70;1.53;;;-4.80;99.90;;;;;;5057647;28;20046;-85
2021/12/22 08:32:07;;;;;;;0.80;0.80;;;-4.70;99.90;;;;;;5072044;28;20043;-86
2021/12/22 08:34:37;;;;;;;0.70;0.70;;;-4.70;99.90;;;;;;5077542;28;20115;-85
2021/12/22 08:39:47;;;;;;;2.23;2.07;;;-4.60;99.90;;;;;;5084257;28;20077;-85
2021/12/22 08:42:13;;;;;;;3.70;2.30;;;-4.50;99.90;;;;;;5093941;28;20449;-85
2021/12/22 08:44:39;;;;;;;1.10;1.00;;;-4.50;99.90;;;;;;5077920;28;20031;-84
2021/12/22 08:47:05;;;;;;;1.47;0.83;;;-4.50;99.90;;;;;;5077292;28;20085;-85
2021/12/22 08:49:35;;;;;;;1.67;1.53;;;-4.40;99.90;;;;;;5061196;28;20062;-86
2021/12/22 08:52:01;;;;;;;1.20;1.10;;;-4.40;99.90;;;;;;5057226;28;20040;-85
2021/12/22 08:54:26;;;;;;;0.90;0.90;;;-4.40;99.90;;;;;;5057228;28;20047;-85
2021/12/22 08:56:54;;;;;;;0.53;0.53;;;-4.30;99.90;;;;;;5056893;28;20124;-85
2021/12/22 08:59:19;;;;;;;1.83;1.67;;;-4.30;99.90;;;;;;5087949;28;20043;-85
2021/12/22 09:01:46;;;;;;;0.60;0.60;;;-4.30;99.90;;;;;;5079544;28;20760;-85
2021/12/22 09:04:12;;;;;;;0.97;0.93;;;-4.20;99.90;;;;;;5077966;28;20044;-85
2021/12/22 09:06:37;;;;;;;2.10;1.53;;;-4.20;99.90;;;;;;5074544;28;20039;-85
2021/12/22 09:09:05;;;;;;;0.73;0.73;;;-4.20;99.90;;;;;;5088671;28;20103;-85
2021/12/22 09:11:31;;;;;;;43.00;3.03;;;-4.10;99.90;;;;;;5079554;28;20046;-85
2021/12/22 09:13:57;;;;;;;1.63;1.33;;;-4.10;99.90;;;;;;5062139;28;20044;-86
2021/12/22 09:16:22;;;;;;;0.80;0.80;;;-4.10;99.90;;;;;;5080158;28;20051;-85
2021/12/22 09:18:54;;;;;;;12.97;2.33;;;-4.10;99.90;;;;;;5069157;28;20413;-85
2021/12/22 09:21:21;;;;;;;0.70;0.70;;;-4.10;99.90;;;;;;5078198;27;20084;-85
2021/12/22 09:23:46;;;;;;;1.87;1.63;;;-4.00;99.90;;;;;;5067996;28;20036;-86
2021/12/22 09:26:12;;;;;;;0.90;0.70;;;-4.00;99.90;;;;;;5067544;27;20484;-85
2021/12/22 09:28:44;;;;;;;2.10;1.43;;;-4.00;99.90;;;;;;5064607;28;20473;-85
2021/12/22 09:31:11;;;;;;;3.23;1.73;;;-3.90;99.90;;;;;;5060908;28;20036;-85
2021/12/22 09:33:38;;;;;;;8.47;7.67;;;-3.80;99.90;;;;;;5060570;28;20505;-86
2021/12/22 09:36:06;;;;;;;0.50;0.50;;;-3.70;99.90;;;;;;5059759;28;20036;-86
2021/12/22 09:38:32;;;;;;;2.10;1.90;;;-3.10;99.90;;;;;;5060548;28;20118;-85
2021/12/22 09:40:58;;;;;;;0.70;0.70;;;-3.60;99.90;;;;;;5060673;28;20127;-85
2021/12/22 09:43:23;;;;;;;0.80;0.80;;;-3.50;99.90;;;;;;5044279;28;20081;-86
2021/12/22 09:46:22;;;;;;;0.80;0.77;;;-3.50;99.90;;;;;;5087756;28;20439;-85
2021/12/22 09:49:19;;;;;;;2.20;1.37;;;-3.40;99.90;;;;;;5064698;28;20166;-85
2021/12/22 09:54:41;;;;;;;4.03;1.73;;;-3.30;99.90;;;;;;5085958;28;20075;-85
2021/12/22 09:57:08;;;;;;;2.57;2.10;;;-3.20;99.90;;;;;;5079685;28;20032;-85
2021/12/22 09:59:36;;;;;;;0.73;0.73;;;-3.10;99.90;;;;;;5080276;28;20040;-85
2021/12/22 10:05:52;;;;;;;4.50;2.90;;;-3.00;99.90;;;;;;5114985;28;20111;-86
2021/12/22 10:08:22;;;;;;;5.50;2.72;;;-2.90;99.90;;;;;;5060307;28;20044;-85
2021/12/22 10:11:10;;;;;;;2.00;1.40;;;-2.80;99.90;;;;;;5060092;28;20060;-85
2021/12/22 10:13:41;;;;;;;5.70;3.37;;;-2.60;99.90;;;;;;5063944;28;20031;-85
2021/12/22 10:16:23;;;;;;;2.57;1.40;;;-2.50;99.90;;;;;;5059996;28;20097;-86
2021/12/22 10:19:03;;;;;;;3.00;2.17;;;-2.40;99.90;;;;;;5059779;28;20047;-84
2021/12/22 10:25:33;;;;;;;5.53;3.27;;;-2.30;99.90;;;;;;5076129;28;20471;-84
2021/12/22 10:28:00;;;;;;;3.50;2.83;;;-2.30;99.90;;;;;;5059299;28;20123;-85
2021/12/22 10:30:43;;;;;;;5.27;2.77;;;-2.30;99.90;;;;;;5079146;28;20043;-85
2021/12/22 10:33:14;;;;;;;4.93;3.13;;;-2.30;99.90;;;;;;5059308;28;20042;-85
2021/12/22 10:35:43;;;;;;;2.50;1.20;;;-2.20;99.90;;;;;;5068322;28;20036;-86
2021/12/22 10:38:35;;;;;;;5.03;2.83;;;-1.20;99.90;;;;;;5060304;28;20044;-87
2021/12/22 10:41:10;;;;;;;2.83;1.93;;;-2.20;99.90;;;;;;5060878;28;20032;-86
2021/12/22 10:43:44;;;;;;;1.35;1.25;;;-2.10;99.90;;;;;;5076966;28;20400;-86
2021/12/22 10:46:15;;;;;;;9.85;2.78;;;-2.10;99.90;;;;;;5097087;27;20043;-86
2021/12/22 10:51:36;;;;;;;1.00;0.85;;;-2.00;99.90;;;;;;5078498;28;20489;-85
2021/12/22 10:54:17;;;;;;;1.07;1.00;;;-2.00;99.90;;;;;;5095784;27;20506;-85
2021/12/22 10:56:47;;;;;;;6.15;2.58;;;-1.90;99.90;;;;;;5089730;28;20149;-86
2021/12/22 10:59:22;;;;;;;1.47;1.10;;;-1.90;99.90;;;;;;5065300;28;20039;-85
2021/12/22 11:02:05;;;;;;;3.60;2.22;;;-1.90;99.90;;;;;;5070658;28;20173;-85
2021/12/22 11:04:32;;;;;;;1.80;1.50;;;-1.90;99.90;;;;;;5059282;28;20562;-85
2021/12/22 11:07:11;;;;;;;1.48;1.02;;;-1.00;99.90;;;;;;5094513;27;20046;-86
2021/12/22 11:09:37;;;;;;;5.83;2.83;;;-1.90;99.90;;;;;;5093512;28;20247;-84
2021/12/22 11:12:05;;;;;;;4.50;2.50;;;-1.90;99.90;;;;;;5050310;28;20044;-85
2021/12/22 11:14:52;;;;;;;0.98;0.75;;;-1.90;99.90;;;;;;5068476;28;20540;-85
2021/12/22 11:17:20;;;;;;;1.43;1.33;;;-1.80;99.90;;;;;;5095810;28;20519;-87
2021/12/22 11:19:58;;;;;;;2.80;1.98;;;-1.90;99.90;;;;;;5079089;27;20058;-85
2021/12/22 11:22:57;;;;;;;1.70;1.50;;;-1.80;99.90;;;;;;5092370;28;20047;-86
2021/12/22 11:25:25;;;;;;;4.93;2.03;;;-1.80;99.90;;;;;;5074150;28;20032;-86
2021/12/22 11:27:52;;;;;;;1.58;1.45;;;-1.80;99.90;;;;;;5054324;28;20035;-86
2021/12/22 11:30:19;;;;;;;1.95;1.35;;;-1.80;99.90;;;;;;5070322;28;20039;-85
2021/12/22 11:32:45;;;;;;;2.05;1.83;;;-1.70;99.90;;;;;;5077085;28;20500;-85
2021/12/22 11:35:13;;;;;;;0.80;0.80;;;-1.70;99.90;;;;;;5075625;28;20071;-86
2021/12/22 11:37:39;;;;;;;1.67;1.17;;;-1.60;99.90;;;;;;5074151;27;20480;-86
2021/12/22 11:40:09;;;;;;;2.30;1.92;;;-1.70;99.90;;;;;;5098061;27;20039;-85
2021/12/22 11:42:38;;;;;;;1.67;1.50;;;-1.60;99.90;;;;;;5070545;28;20044;-86
2021/12/22 11:45:16;;;;;;;1.25;1.15;;;-1.60;99.90;;;;;;5072239;28;20043;-86
2021/12/22 11:47:45;;;;;;;3.30;1.60;;;-1.60;99.90;;;;;;5089149;28;20627;-86
2021/12/22 11:50:17;;;;;;;1.85;1.58;;;-1.60;99.90;;;;;;5062727;28;20166;-86
2021/12/22 11:52:55;;;;;;;1.17;1.02;;;-1.60;99.90;;;;;;5097178;28;20084;-86
2021/12/22 11:55:23;;;;;;;1.33;0.93;;;-1.50;99.90;;;;;;5082616;28;20035;-86
2021/12/22 11:57:53;;;;;;;2.70;2.05;;;-1.50;99.90;;;;;;5071887;27;20053;-86
2021/12/22 12:00:31;;;;;;;3.53;1.95;;;-1.50;99.90;;;;;;5089754;28;20164;-86
2021/12/22 12:03:18;;;;;;;1.70;1.58;;;-1.50;99.90;;;;;;5063997;28;20080;-86
2021/12/22 12:06:23;;;;;;;0.60;0.60;;;-1.40;99.90;;;;;;5100268;28;20067;-86
2021/12/22 12:08:53;;;;;;;1.55;1.38;;;-1.40;99.90;;;;;;5086597;28;20039;-86
2021/12/22 12:11:54;;;;;;;1.30;1.08;;;-1.30;99.90;;;;;;5096381;28;20054;-86
2021/12/22 12:23:29;;;;;;;5.35;2.05;;;-1.30;99.90;;;;;;5074052;28;20098;-86
2021/12/22 12:26:05;;;;;;;1.60;0.93;;;-1.30;99.90;;;;;;5073922;28;20036;-87
2021/12/22 12:28:44;;;;;;;2.53;2.00;;;-1.30;99.90;;;;;;5073930;28;20374;-87
2021/12/22 12:31:10;;;;;;;1.58;1.48;;;-1.30;99.90;;;;;;5050894;28;20500;-87
2021/12/22 12:33:44;;;;;;;3.55;2.63;;;-1.30;99.90;;;;;;5084257;28;20054;-86
2021/12/22 12:36:12;;;;;;;3.73;2.17;;;-1.30;99.90;;;;;;5073701;28;20039;-87
2021/12/22 12:38:45;;;;;;;3.38;2.40;;;-1.30;99.90;;;;;;5079319;28;20294;-86
2021/12/22 12:41:13;;;;;;;2.10;1.35;;;-1.20;99.90;;;;;;5073824;28;20036;-86
2021/12/22 12:43:44;;;;;;;0.70;0.70;;;-1.20;99.90;;;;;;5081897;28;20044;-87
2021/12/22 12:46:35;;;;;;;4.38;2.05;;;-1.20;99.90;;;;;;5070116;28;20520;-86
2021/12/22 12:49:06;;;;;;;1.30;1.17;;;-1.20;99.90;;;;;;5057781;28;20044;-87
2021/12/22 12:51:38;;;;;;;3.33;2.05;;;-0.90;99.90;;;;;;5076367;28;20054;-86
2021/12/22 12:54:16;;;;;;;1.17;1.08;;;-1.20;99.90;;;;;;5081245;28;20396;-87
2021/12/22 12:56:43;;;;;;;1.67;1.17;;;-1.20;99.90;;;;;;5086711;27;20153;-86
2021/12/22 12:59:28;;;;;;;2.40;1.63;;;-1.10;99.90;;;;;;5078814;27;20046;-87
2021/12/22 13:01:54;;;;;;;2.97;2.08;;;-1.10;99.90;;;;;;5077086;28;20039;-87
2021/12/22 13:04:23;;;;;;;3.53;2.33;;;-1.10;99.90;;;;;;5072769;28;20051;-86
2021/12/22 13:07:05;;;;;;;1.13;0.82;;;-1.10;99.90;;;;;;5072620;28;20032;-86
2021/12/22 13:10:12;;;;;;;2.03;1.80;;;-1.00;99.90;;;;;;5063975;28;20032;-86
2021/12/22 13:18:10;;;;;;;0.65;0.65;;;-1.00;99.90;;;;;;5094030;28;20519;-86
2021/12/22 13:20:38;;;;;;;1.33;0.95;;;-1.00;99.90;;;;;;5077122;28;20036;-86
2021/12/22 13:23:12;;;;;;;2.88;1.25;;;-1.00;99.90;;;;;;5069482;28;20039;-87
2021/12/22 13:25:51;;;;;;;3.28;2.80;;;-1.00;99.90;;;;;;5094471;28;20081;-86
2021/12/22 13:28:24;;;;;;;1.30;1.20;;;-1.00;99.90;;;;;;5064629;28;20511;-87
2021/12/22 13:31:06;;;;;;;2.35;1.60;;;-1.00;99.90;;;;;;5069484;28;20493;-87
2021/12/22 13:33:35;;;;;;;2.15;1.73;;;-1.00;99.90;;;;;;5093459;28;20080;-87
2021/12/22 13:36:07;;;;;;;1.45;1.35;;;-1.00;99.90;;;;;;5096081;27;20070;-87
2021/12/22 13:38:32;;;;;;;1.05;0.93;;;-1.00;99.90;;;;;;5116984;27;20075;-86
2021/12/22 13:41:01;;;;;;;1.27;1.05;;;-1.10;99.90;;;;;;5091952;27;20459;-87